Time;durP1;ratioP1;P1;durP2;ratioP2;P2;SDS_P1;SDS_P2;PMS_P1;PMS_P2;Temp;Humidity;BMP_temperature;BMP_pressure;BME280_temperature;BME280_humidity;BME280_pressure;Samples;Min_cycle;Max_cycle;Signal;HPM_P1;HPM_P2
2021/08/17 00:00:41;;;;;;;6.15;3.30;;;14.30;99.90;;;;;;2089181;28;20037;-73
2021/08/17 00:01:42;;;;;;;7.82;3.40;;;14.30;99.90;;;;;;2081498;28;20115;-72
2021/08/17 00:02:42;;;;;;;7.88;3.40;;;14.30;99.90;;;;;;2089784;28;20025;-72
2021/08/17 00:03:43;;;;;;;6.32;3.55;;;14.30;99.90;;;;;;2081204;28;20107;-72
2021/08/17 00:04:44;;;;;;;6.63;3.55;;;14.30;99.90;;;;;;2089593;28;20033;-72
2021/08/17 00:05:44;;;;;;;6.85;3.40;;;14.30;99.90;;;;;;2089576;28;20431;-72
2021/08/17 00:06:45;;;;;;;6.63;3.75;;;14.30;99.90;;;;;;2081307;28;20531;-72
2021/08/17 00:07:45;;;;;;;7.75;3.88;;;14.30;99.90;;;;;;2090130;28;20025;-72
2021/08/17 00:08:46;;;;;;;8.70;3.70;;;14.30;99.90;;;;;;2080985;28;20032;-72
2021/08/17 00:09:46;;;;;;;6.25;3.20;;;14.30;99.90;;;;;;2080743;28;20565;-71
2021/08/17 00:10:47;;;;;;;7.28;3.60;;;14.30;99.90;;;;;;2081221;28;20505;-71
2021/08/17 00:11:48;;;;;;;8.50;3.63;;;14.30;99.90;;;;;;2081335;28;20112;-71
2021/08/17 00:12:49;;;;;;;5.90;3.15;;;14.30;99.90;;;;;;2097816;28;20095;-72
2021/08/17 00:13:49;;;;;;;6.85;3.60;;;14.20;99.90;;;;;;2097754;28;20040;-72
2021/08/17 00:14:50;;;;;;;7.75;3.58;;;14.20;99.90;;;;;;2081077;28;20107;-71
2021/08/17 00:15:50;;;;;;;8.38;3.90;;;14.20;99.90;;;;;;2072909;28;20116;-71
2021/08/17 00:16:51;;;;;;;8.18;4.10;;;14.20;99.90;;;;;;2081422;28;20037;-71
2021/08/17 00:17:51;;;;;;;7.30;3.55;;;14.20;99.90;;;;;;2073123;28;20026;-71
2021/08/17 00:18:52;;;;;;;6.45;3.72;;;14.20;99.80;;;;;;2072832;28;20042;-72
2021/08/17 00:19:53;;;;;;;7.75;3.80;;;14.20;99.90;;;;;;2089721;28;20025;-72
2021/08/17 00:20:53;;;;;;;7.70;3.97;;;14.10;99.90;;;;;;2090754;28;20031;-72
2021/08/17 00:21:54;;;;;;;9.30;4.38;;;14.10;99.90;;;;;;2081468;28;20132;-71
2021/08/17 00:22:54;;;;;;;9.15;3.53;;;14.10;99.90;;;;;;2081202;28;20041;-72
2021/08/17 00:23:56;;;;;;;8.50;4.03;;;14.10;99.90;;;;;;2081182;28;20041;-72
2021/08/17 00:24:57;;;;;;;7.32;3.88;;;14.10;99.90;;;;;;2081133;28;20064;-71
2021/08/17 00:25:58;;;;;;;8.38;3.85;;;14.10;99.90;;;;;;2081222;28;20392;-71
2021/08/17 00:26:58;;;;;;;8.38;4.28;;;14.10;99.90;;;;;;2081034;28;20029;-71
2021/08/17 00:27:59;;;;;;;8.55;4.10;;;14.10;99.90;;;;;;2081221;28;20587;-72
2021/08/17 00:29:00;;;;;;;7.57;3.50;;;14.10;99.90;;;;;;2080502;28;20038;-71
2021/08/17 00:30:00;;;;;;;6.47;3.42;;;14.10;99.90;;;;;;2080727;28;20496;-72
2021/08/17 00:31:01;;;;;;;11.10;5.70;;;14.10;99.90;;;;;;2081098;28;20017;-72
2021/08/17 00:32:02;;;;;;;8.20;3.88;;;14.10;99.90;;;;;;2089971;28;20025;-71
2021/08/17 00:33:03;;;;;;;7.72;3.65;;;14.20;99.90;;;;;;2080976;28;20185;-71
2021/08/17 00:34:03;;;;;;;9.70;4.25;;;14.10;99.90;;;;;;2081168;28;20029;-72
2021/08/17 00:35:05;;;;;;;10.68;4.10;;;14.10;99.90;;;;;;2081106;28;20030;-71
2021/08/17 00:36:09;;;;;;;7.82;4.45;;;14.10;99.90;;;;;;2081311;28;20044;-71
2021/08/17 00:37:12;;;;;;;8.25;4.03;;;14.10;99.90;;;;;;2081015;28;20029;-72
2021/08/17 00:38:13;;;;;;;10.75;3.97;;;14.10;99.90;;;;;;2081078;28;20104;-71
2021/08/17 00:39:14;;;;;;;6.80;3.90;;;14.20;99.90;;;;;;2080399;28;20029;-72
2021/08/17 00:40:14;;;;;;;8.57;4.03;;;14.10;99.90;;;;;;2089991;28;20461;-72
2021/08/17 00:41:15;;;;;;;11.00;4.63;;;14.10;99.90;;;;;;2090025;28;20025;-73
2021/08/17 00:42:16;;;;;;;10.23;4.32;;;14.10;99.80;;;;;;2090227;28;20037;-71
2021/08/17 00:43:16;;;;;;;8.30;4.18;;;14.10;99.90;;;;;;2082777;28;20045;-72
2021/08/17 00:44:24;;;;;;;9.02;4.18;;;14.00;99.90;;;;;;2084316;28;20029;-71
2021/08/17 00:45:27;;;;;;;6.82;3.72;;;14.00;99.90;;;;;;2075673;28;20030;-71
2021/08/17 00:46:27;;;;;;;7.97;3.95;;;14.00;99.90;;;;;;2081381;28;20029;-72
2021/08/17 00:47:28;;;;;;;9.63;4.03;;;14.10;99.90;;;;;;2089893;28;20043;-70
2021/08/17 00:48:28;;;;;;;7.68;3.97;;;14.10;99.90;;;;;;2081142;28;20037;-71
2021/08/17 00:49:30;;;;;;;7.13;3.67;;;14.10;99.90;;;;;;2080172;28;20056;-71
2021/08/17 00:50:32;;;;;;;8.15;3.90;;;14.10;99.90;;;;;;2081078;28;20029;-70
2021/08/17 00:51:33;;;;;;;8.63;4.22;;;14.10;99.90;;;;;;2089756;28;20036;-71
2021/08/17 00:52:33;;;;;;;9.20;4.20;;;14.10;99.90;;;;;;2080753;28;20021;-71
2021/08/17 00:53:35;;;;;;;8.60;4.32;;;14.00;99.90;;;;;;2080968;28;20061;-71
2021/08/17 00:54:42;;;;;;;8.57;4.32;;;14.00;99.90;;;;;;2080905;28;20045;-71
2021/08/17 00:55:43;;;;;;;7.85;4.40;;;14.00;99.90;;;;;;2081985;28;20655;-71
2021/08/17 00:56:44;;;;;;;8.07;4.00;;;14.00;99.90;;;;;;2097695;28;20029;-70
2021/08/17 00:57:47;;;;;;;11.57;4.25;;;14.00;99.90;;;;;;2080940;28;20421;-71
2021/08/17 00:58:48;;;;;;;10.40;4.32;;;14.00;99.90;;;;;;2081464;28;20033;-70
2021/08/17 00:59:48;;;;;;;7.88;4.50;;;14.00;99.90;;;;;;2097186;28;20025;-71
2021/08/17 01:00:49;;;;;;;8.77;4.32;;;14.00;99.90;;;;;;2089750;28;20116;-71
2021/08/17 01:01:50;;;;;;;8.65;4.05;;;14.00;99.90;;;;;;2080840;28;20083;-72
2021/08/17 01:02:51;;;;;;;8.63;3.90;;;14.10;99.90;;;;;;2081070;28;20073;-72
2021/08/17 01:03:51;;;;;;;6.55;4.03;;;14.00;99.90;;;;;;2089568;28;20044;-71
2021/08/17 01:04:52;;;;;;;8.80;3.90;;;14.10;99.90;;;;;;2089784;28;20032;-71
2021/08/17 01:05:53;;;;;;;10.52;4.60;;;14.00;99.90;;;;;;2089924;28;20032;-71
2021/08/17 01:06:53;;;;;;;9.27;4.05;;;14.00;99.90;;;;;;2081212;28;20476;-71
2021/08/17 01:07:55;;;;;;;6.95;3.70;;;14.00;99.90;;;;;;2081208;28;20021;-71
2021/08/17 01:08:56;;;;;;;7.70;4.07;;;14.00;99.90;;;;;;2089245;28;20120;-71
2021/08/17 01:09:56;;;;;;;8.50;3.78;;;14.00;99.90;;;;;;2080850;28;20055;-71
2021/08/17 01:10:57;;;;;;;8.23;4.40;;;14.00;99.90;;;;;;2081202;28;20468;-71
2021/08/17 01:12:03;;;;;;;6.88;3.80;;;14.00;99.90;;;;;;2089128;28;20024;-71
2021/08/17 01:13:04;;;;;;;9.10;4.22;;;14.10;99.90;;;;;;2089798;28;20032;-71
2021/08/17 01:14:04;;;;;;;9.38;4.30;;;14.10;99.90;;;;;;2089931;28;20045;-72
2021/08/17 01:15:06;;;;;;;10.82;3.90;;;14.10;99.90;;;;;;2090187;28;20025;-71
2021/08/17 01:16:07;;;;;;;8.70;4.22;;;14.00;99.90;;;;;;2089478;28;20064;-71
2021/08/17 01:17:08;;;;;;;9.10;4.18;;;14.00;99.90;;;;;;2080998;28;20077;-72
2021/08/17 01:18:08;;;;;;;8.07;4.35;;;14.00;99.90;;;;;;2080880;28;20033;-72
2021/08/17 01:19:11;;;;;;;7.40;3.88;;;14.00;99.90;;;;;;2080051;28;20084;-71
2021/08/17 01:20:17;;;;;;;7.88;4.05;;;14.00;99.90;;;;;;2089544;28;20044;-71
2021/08/17 01:21:18;;;;;;;6.95;3.80;;;14.00;99.90;;;;;;2080762;28;20034;-72
2021/08/17 01:22:19;;;;;;;6.85;4.10;;;14.00;99.90;;;;;;2080539;28;20405;-71
2021/08/17 01:23:22;;;;;;;9.73;4.05;;;14.00;99.70;;;;;;2080613;28;20030;-71
2021/08/17 01:24:22;;;;;;;7.57;4.10;;;14.00;99.70;;;;;;2080723;28;20025;-71
2021/08/17 01:25:24;;;;;;;10.30;4.13;;;14.00;99.40;;;;;;2080750;28;20034;-71
2021/08/17 01:26:24;;;;;;;9.93;4.10;;;14.00;99.80;;;;;;2089554;28;20025;-73
2021/08/17 01:27:25;;;;;;;8.32;4.20;;;14.00;99.30;;;;;;2089533;28;20029;-73
2021/08/17 01:28:26;;;;;;;7.35;4.10;;;14.00;99.60;;;;;;2089489;28;20060;-72
2021/08/17 01:29:26;;;;;;;6.65;3.75;;;14.00;99.90;;;;;;2088604;28;20084;-73
2021/08/17 01:30:27;;;;;;;8.85;4.03;;;14.00;99.80;;;;;;2089489;28;20039;-73
2021/08/17 01:31:29;;;;;;;9.60;4.07;;;14.00;99.40;;;;;;2096888;28;20032;-72
2021/08/17 01:32:30;;;;;;;7.28;4.10;;;14.00;98.70;;;;;;2093015;28;20040;-72
2021/08/17 01:33:33;;;;;;;9.75;3.80;;;14.00;98.60;;;;;;2090171;28;20501;-72
2021/08/17 01:34:34;;;;;;;10.27;4.05;;;14.00;98.80;;;;;;2088019;28;20045;-73
2021/08/17 01:35:34;;;;;;;6.50;3.63;;;14.00;98.70;;;;;;2105476;28;20060;-72
2021/08/17 01:36:35;;;;;;;12.38;4.03;;;14.00;98.90;;;;;;2096790;28;20028;-73
2021/08/17 01:37:36;;;;;;;6.93;4.10;;;14.00;98.70;;;;;;2088737;28;20042;-73
2021/08/17 01:38:52;;;;;;;8.70;4.07;;;14.00;98.60;;;;;;2104570;28;20115;-72
2021/08/17 01:40:08;;;;;;;8.30;4.05;;;14.00;98.90;;;;;;2100726;28;20017;-72
2021/08/17 01:41:10;;;;;;;10.07;4.35;;;14.00;98.70;;;;;;2083767;28;20018;-72
2021/08/17 01:42:12;;;;;;;12.88;4.18;;;14.00;98.50;;;;;;2081701;28;20019;-73
2021/08/17 01:43:12;;;;;;;9.90;4.05;;;13.90;98.30;;;;;;2081091;28;20030;-75
2021/08/17 01:44:17;;;;;;;9.60;4.25;;;13.90;98.40;;;;;;2089786;28;20025;-73
2021/08/17 01:45:20;;;;;;;9.48;3.88;;;13.90;99.00;;;;;;2089892;28;20052;-73
2021/08/17 01:46:20;;;;;;;9.25;4.47;;;13.90;98.90;;;;;;2089866;28;20180;-72
2021/08/17 01:47:21;;;;;;;7.75;4.40;;;13.90;98.70;;;;;;2089759;28;20155;-73
2021/08/17 01:48:24;;;;;;;9.15;4.00;;;13.90;98.70;;;;;;2089605;28;20044;-72
2021/08/17 01:49:25;;;;;;;12.73;4.20;;;13.90;98.40;;;;;;2088572;28;20029;-73
2021/08/17 01:50:25;;;;;;;8.55;4.18;;;13.90;98.80;;;;;;2089548;28;20033;-73
2021/08/17 01:51:26;;;;;;;9.20;3.92;;;13.90;98.70;;;;;;2089465;28;20029;-73
2021/08/17 01:52:27;;;;;;;7.38;3.92;;;13.90;98.80;;;;;;2080546;28;20480;-72
2021/08/17 01:53:29;;;;;;;7.70;4.13;;;13.90;98.80;;;;;;2080775;28;20033;-73
2021/08/17 01:54:30;;;;;;;8.75;4.63;;;13.90;99.40;;;;;;2080586;28;20017;-73
2021/08/17 01:55:31;;;;;;;14.05;4.93;;;13.90;99.10;;;;;;2080698;28;20503;-73
2021/08/17 01:56:32;;;;;;;9.00;4.60;;;13.90;98.00;;;;;;2089426;28;20040;-73
2021/08/17 01:57:32;;;;;;;12.55;4.50;;;13.90;98.20;;;;;;2089415;28;20119;-72
2021/08/17 01:58:33;;;;;;;8.18;4.18;;;13.90;98.40;;;;;;2080422;28;20034;-73
2021/08/17 01:59:33;;;;;;;9.68;4.20;;;13.90;98.80;;;;;;2079854;28;20021;-73
2021/08/17 02:00:34;;;;;;;8.90;4.20;;;13.90;98.80;;;;;;2089412;28;20029;-73
2021/08/17 02:01:34;;;;;;;8.85;4.40;;;13.90;98.40;;;;;;2089607;28;20078;-73
2021/08/17 02:02:36;;;;;;;10.65;4.53;;;13.90;98.30;;;;;;2089377;28;20040;-73
2021/08/17 02:03:37;;;;;;;11.18;4.28;;;13.80;97.50;;;;;;2089507;28;20032;-73
2021/08/17 02:04:37;;;;;;;9.48;4.57;;;13.90;97.80;;;;;;2089419;28;20087;-73
2021/08/17 02:05:38;;;;;;;9.80;4.70;;;13.90;98.10;;;;;;2090176;28;20029;-73
2021/08/17 02:06:39;;;;;;;10.35;4.30;;;13.90;97.90;;;;;;2091609;28;20430;-73
2021/08/17 02:07:40;;;;;;;10.90;4.63;;;13.90;97.70;;;;;;2091337;28;20036;-73
2021/08/17 02:08:41;;;;;;;9.40;4.30;;;13.90;98.00;;;;;;2082478;28;20029;-72
2021/08/17 02:09:42;;;;;;;10.80;4.65;;;14.00;97.70;;;;;;2082668;28;20022;-73
2021/08/17 02:10:42;;;;;;;10.77;5.10;;;14.00;97.30;;;;;;2082181;28;20136;-73
2021/08/17 02:11:43;;;;;;;10.95;4.60;;;14.00;97.50;;;;;;2080797;28;20087;-72
2021/08/17 02:12:43;;;;;;;8.77;4.53;;;14.00;98.00;;;;;;2080786;28;20142;-73
2021/08/17 02:13:44;;;;;;;11.15;4.85;;;14.00;98.10;;;;;;2089630;28;20103;-73
2021/08/17 02:14:44;;;;;;;10.20;4.80;;;14.00;97.40;;;;;;2089317;28;20623;-73
2021/08/17 02:15:46;;;;;;;9.05;4.68;;;14.00;97.50;;;;;;2089264;28;20029;-73
2021/08/17 02:16:47;;;;;;;10.48;4.85;;;14.00;97.80;;;;;;2089203;28;20060;-73
2021/08/17 02:17:47;;;;;;;11.10;4.90;;;14.00;97.80;;;;;;2089196;28;20395;-73
2021/08/17 02:18:48;;;;;;;12.30;5.07;;;14.00;97.70;;;;;;2096539;28;20143;-73
2021/08/17 02:19:49;;;;;;;9.15;4.75;;;14.00;97.60;;;;;;2087965;28;20021;-73
2021/08/17 02:20:49;;;;;;;9.23;4.63;;;14.00;97.80;;;;;;2080290;28;20037;-73
2021/08/17 02:21:50;;;;;;;11.82;4.85;;;14.00;97.60;;;;;;2088504;28;20373;-73
2021/08/17 02:22:51;;;;;;;10.93;4.60;;;14.00;97.30;;;;;;2096604;28;20515;-73
2021/08/17 02:23:51;;;;;;;10.27;4.80;;;14.00;97.10;;;;;;2079436;28;20041;-72
2021/08/17 02:24:52;;;;;;;10.00;4.72;;;14.00;96.50;;;;;;2080202;28;20037;-73
2021/08/17 02:25:52;;;;;;;11.05;4.85;;;14.00;96.90;;;;;;2080007;28;20049;-72
2021/08/17 02:26:53;;;;;;;9.95;4.60;;;14.00;97.30;;;;;;2080149;28;20022;-73
2021/08/17 02:27:54;;;;;;;10.05;4.93;;;14.00;97.10;;;;;;2080114;28;20025;-71
2021/08/17 02:28:54;;;;;;;8.70;4.80;;;14.00;96.70;;;;;;2079737;28;20025;-72
2021/08/17 02:29:55;;;;;;;12.65;5.05;;;14.00;97.10;;;;;;2080152;28;20091;-74
2021/08/17 02:30:55;;;;;;;12.90;4.93;;;14.00;96.40;;;;;;2080236;28;20033;-72
2021/08/17 02:31:56;;;;;;;11.30;4.88;;;14.00;96.50;;;;;;2089125;28;20586;-73
2021/08/17 02:32:56;;;;;;;9.85;5.00;;;14.00;97.00;;;;;;2089027;28;20033;-74
2021/08/17 02:33:57;;;;;;;12.93;5.50;;;14.00;97.50;;;;;;2089003;28;20546;-74
2021/08/17 02:34:58;;;;;;;13.93;4.95;;;14.00;98.30;;;;;;2088924;28;20036;-73
2021/08/17 02:35:59;;;;;;;12.32;4.95;;;14.00;96.90;;;;;;2088916;28;20111;-74
2021/08/17 02:36:59;;;;;;;11.63;4.88;;;14.00;96.90;;;;;;2080197;28;20033;-72
2021/08/17 02:38:00;;;;;;;8.63;5.22;;;13.90;97.70;;;;;;2079831;28;20079;-73
2021/08/17 02:39:01;;;;;;;11.13;5.07;;;13.90;96.60;;;;;;2079366;28;20499;-73
2021/08/17 02:40:02;;;;;;;11.57;4.85;;;13.90;96.70;;;;;;2088958;28;20036;-73
2021/08/17 02:41:03;;;;;;;10.57;4.80;;;13.90;96.60;;;;;;2089048;28;20037;-73
2021/08/17 02:42:04;;;;;;;10.60;4.63;;;13.80;96.90;;;;;;2080166;28;20033;-73
2021/08/17 02:43:05;;;;;;;9.95;5.30;;;13.80;97.20;;;;;;2080219;28;20108;-72
2021/08/17 02:44:05;;;;;;;10.68;4.93;;;13.80;98.20;;;;;;2080141;28;20522;-73
2021/08/17 02:45:07;;;;;;;8.85;4.85;;;13.70;98.40;;;;;;2080112;28;20030;-73
2021/08/17 02:46:07;;;;;;;10.50;5.05;;;13.70;98.10;;;;;;2088715;28;20025;-73
2021/08/17 02:47:08;;;;;;;9.50;4.85;;;13.70;97.90;;;;;;2089000;28;20039;-72
2021/08/17 02:48:09;;;;;;;10.60;5.20;;;13.70;97.80;;;;;;2096554;28;20032;-73
2021/08/17 02:49:09;;;;;;;9.73;5.05;;;13.80;98.00;;;;;;2087562;28;20029;-73
2021/08/17 02:50:10;;;;;;;13.88;4.97;;;13.70;98.10;;;;;;2080164;28;20022;-73
2021/08/17 02:51:11;;;;;;;14.32;5.18;;;13.70;97.40;;;;;;2088926;28;20499;-73
2021/08/17 02:52:11;;;;;;;11.63;5.22;;;13.70;97.80;;;;;;2089123;28;20071;-73
2021/08/17 02:53:13;;;;;;;9.90;5.07;;;13.80;97.20;;;;;;2079739;28;20120;-73
2021/08/17 02:54:13;;;;;;;11.05;5.28;;;13.80;97.70;;;;;;2080049;28;20095;-73
2021/08/17 02:55:14;;;;;;;11.40;5.18;;;13.80;98.00;;;;;;2088966;28;20032;-73
2021/08/17 02:56:14;;;;;;;10.85;5.00;;;13.80;97.80;;;;;;2088834;28;20741;-73
2021/08/17 02:57:15;;;;;;;14.50;5.35;;;13.80;97.80;;;;;;2096384;28;20056;-73
2021/08/17 02:58:16;;;;;;;11.88;5.00;;;13.80;97.90;;;;;;2096642;28;20047;-73
2021/08/17 02:59:16;;;;;;;11.05;5.22;;;13.80;96.70;;;;;;2088010;28;20032;-73
2021/08/17 03:00:18;;;;;;;9.75;5.05;;;13.80;97.00;;;;;;2079890;28;20030;-73
2021/08/17 03:01:18;;;;;;;10.43;4.90;;;13.80;97.60;;;;;;2079826;28;20497;-72
2021/08/17 03:02:19;;;;;;;11.35;5.32;;;13.80;97.90;;;;;;2088087;28;20083;-73
2021/08/17 03:03:19;;;;;;;10.80;5.10;;;13.90;97.70;;;;;;2097410;28;20035;-73
2021/08/17 03:04:20;;;;;;;12.52;5.35;;;13.90;98.20;;;;;;2082400;28;20037;-73
2021/08/17 03:05:21;;;;;;;9.98;5.18;;;13.90;97.80;;;;;;2082745;28;20041;-73
2021/08/17 03:06:21;;;;;;;13.35;5.45;;;13.90;97.70;;;;;;2081169;28;20076;-73
2021/08/17 03:07:22;;;;;;;9.93;5.10;;;13.80;96.50;;;;;;2081074;28;20021;-73
2021/08/17 03:08:22;;;;;;;11.52;5.30;;;13.80;96.60;;;;;;2080697;28;20088;-74
2021/08/17 03:09:23;;;;;;;9.20;5.10;;;13.80;98.30;;;;;;2079988;28;20072;-73
2021/08/17 03:10:24;;;;;;;8.70;4.80;;;13.80;98.10;;;;;;2090586;28;20037;-73
2021/08/17 03:11:25;;;;;;;12.07;5.05;;;13.80;97.50;;;;;;2090627;28;20117;-73
2021/08/17 03:12:25;;;;;;;9.95;5.07;;;13.80;96.60;;;;;;2082501;28;20033;-71
2021/08/17 03:13:26;;;;;;;10.70;5.13;;;13.80;96.60;;;;;;2080264;28;20033;-72
2021/08/17 03:14:27;;;;;;;11.73;5.10;;;13.80;97.10;;;;;;2079981;28;20032;-74
2021/08/17 03:15:33;;;;;;;12.00;5.03;;;13.80;97.10;;;;;;2080137;28;20556;-73
2021/08/17 03:16:34;;;;;;;11.80;5.13;;;13.80;97.70;;;;;;2080772;28;20396;-73
2021/08/17 03:17:37;;;;;;;11.43;5.00;;;13.70;97.30;;;;;;2079887;28;20034;-72
2021/08/17 03:18:38;;;;;;;11.60;5.22;;;13.70;96.90;;;;;;2088356;28;20040;-73
2021/08/17 03:19:38;;;;;;;11.40;4.88;;;13.70;96.90;;;;;;2095923;28;20651;-74
2021/08/17 03:20:39;;;;;;;10.10;4.93;;;13.70;96.60;;;;;;2088842;28;20036;-73
2021/08/17 03:21:40;;;;;;;9.98;5.47;;;13.60;96.50;;;;;;2088721;28;20113;-74
2021/08/17 03:22:41;;;;;;;11.93;5.28;;;13.60;97.50;;;;;;2088713;28;20436;-73
2021/08/17 03:23:42;;;;;;;12.00;5.07;;;13.60;96.80;;;;;;2088437;28;20028;-73
2021/08/17 03:24:43;;;;;;;12.40;4.80;;;13.60;96.80;;;;;;2079999;28;20049;-73
2021/08/17 03:25:43;;;;;;;15.18;5.28;;;13.60;96.60;;;;;;2079902;28;20685;-73
2021/08/17 03:26:44;;;;;;;9.02;4.90;;;13.60;97.10;;;;;;2088128;28;20056;-73
2021/08/17 03:27:45;;;;;;;14.13;5.10;;;13.50;97.50;;;;;;2087985;28;20078;-74
2021/08/17 03:28:45;;;;;;;10.77;5.38;;;13.50;97.60;;;;;;2079347;28;20033;-71
2021/08/17 03:29:46;;;;;;;9.20;4.72;;;13.50;97.20;;;;;;2079312;28;20057;-74
2021/08/17 03:30:47;;;;;;;11.48;5.07;;;13.50;97.10;;;;;;2088716;28;20029;-74
2021/08/17 03:31:47;;;;;;;11.18;4.90;;;13.50;97.30;;;;;;2088727;28;20028;-73
2021/08/17 03:32:48;;;;;;;10.52;5.10;;;13.50;96.50;;;;;;2088659;28;20076;-74
2021/08/17 03:33:48;;;;;;;9.73;5.07;;;13.50;96.70;;;;;;2088712;28;20033;-74
2021/08/17 03:34:49;;;;;;;9.68;4.90;;;13.40;97.80;;;;;;2088245;28;20116;-72
2021/08/17 03:35:50;;;;;;;11.10;5.03;;;13.50;98.00;;;;;;2088716;28;20047;-73
2021/08/17 03:36:50;;;;;;;10.23;5.13;;;13.40;97.30;;;;;;2088700;28;20035;-73
2021/08/17 03:37:51;;;;;;;10.50;5.45;;;13.40;97.60;;;;;;2088655;28;20027;-72
2021/08/17 03:38:51;;;;;;;8.85;5.00;;;13.40;97.60;;;;;;2088554;28;20032;-73
2021/08/17 03:39:52;;;;;;;9.73;5.00;;;13.40;98.10;;;;;;2088318;28;20055;-73
2021/08/17 03:40:53;;;;;;;10.65;4.90;;;13.40;97.30;;;;;;2088723;28;20031;-72
2021/08/17 03:41:53;;;;;;;9.15;4.95;;;13.40;97.20;;;;;;2088825;28;20788;-73
2021/08/17 03:42:54;;;;;;;13.63;5.68;;;13.30;97.40;;;;;;2088620;28;20025;-72
2021/08/17 03:43:55;;;;;;;14.00;5.30;;;13.30;98.20;;;;;;2088652;28;20037;-74
2021/08/17 03:44:59;;;;;;;10.35;5.60;;;13.30;97.60;;;;;;2088850;28;20051;-73
2021/08/17 03:45:59;;;;;;;11.88;5.43;;;13.30;98.20;;;;;;2088590;28;20719;-73
2021/08/17 03:47:00;;;;;;;8.02;5.10;;;13.30;97.90;;;;;;2079673;28;20029;-73
2021/08/17 03:48:02;;;;;;;10.85;5.18;;;13.30;98.90;;;;;;2079696;28;20160;-73
2021/08/17 03:49:02;;;;;;;11.45;5.40;;;13.30;98.70;;;;;;2078968;28;20025;-72
2021/08/17 03:50:06;;;;;;;8.63;5.10;;;13.30;98.00;;;;;;2088222;28;20100;-73
2021/08/17 03:51:06;;;;;;;10.55;5.53;;;13.30;97.80;;;;;;2079410;28;20540;-72
2021/08/17 03:52:07;;;;;;;11.20;5.40;;;13.30;98.70;;;;;;2079646;28;20147;-72
2021/08/17 03:53:07;;;;;;;9.18;4.93;;;13.30;98.70;;;;;;2079714;28;20044;-72
2021/08/17 03:54:08;;;;;;;10.35;5.43;;;13.30;98.70;;;;;;2079840;28;20101;-72
2021/08/17 03:55:09;;;;;;;13.82;5.07;;;13.30;97.80;;;;;;2079686;28;20033;-72
2021/08/17 03:56:10;;;;;;;10.57;5.30;;;13.30;97.70;;;;;;2079635;28;20425;-71
2021/08/17 03:57:10;;;;;;;9.13;4.88;;;13.30;98.00;;;;;;2088148;28;20029;-72
2021/08/17 03:58:11;;;;;;;14.98;5.60;;;13.30;98.10;;;;;;2096243;28;20066;-72
2021/08/17 03:59:12;;;;;;;14.20;5.20;;;13.40;98.40;;;;;;2088565;28;20045;-72
2021/08/17 04:00:17;;;;;;;9.90;5.35;;;13.40;98.70;;;;;;2088631;28;20040;-71
2021/08/17 04:01:19;;;;;;;7.38;5.10;;;13.40;97.90;;;;;;2088620;28;20021;-71
2021/08/17 04:02:20;;;;;;;10.70;5.20;;;13.40;97.70;;;;;;2088571;28;20706;-71
2021/08/17 04:03:20;;;;;;;10.60;5.03;;;13.40;97.10;;;;;;2088451;28;20033;-72
2021/08/17 04:04:21;;;;;;;11.65;5.05;;;13.40;97.10;;;;;;2088595;28;20487;-70
2021/08/17 04:05:22;;;;;;;9.27;5.20;;;13.40;97.90;;;;;;2079684;28;20036;-70
2021/08/17 04:06:22;;;;;;;9.25;4.80;;;13.40;97.90;;;;;;2079894;28;20038;-72
2021/08/17 04:07:23;;;;;;;7.95;4.95;;;13.40;98.00;;;;;;2088675;28;20021;-72
2021/08/17 04:08:23;;;;;;;9.43;4.78;;;13.40;98.20;;;;;;2079700;28;20467;-69
2021/08/17 04:09:24;;;;;;;9.55;4.53;;;13.40;97.20;;;;;;2078980;28;20137;-70
2021/08/17 04:10:25;;;;;;;12.73;5.03;;;13.40;97.20;;;;;;2088635;28;20083;-71
2021/08/17 04:11:25;;;;;;;13.23;5.15;;;13.40;97.80;;;;;;2088529;28;20033;-72
2021/08/17 04:12:26;;;;;;;10.57;5.10;;;13.40;97.50;;;;;;2088524;28;20093;-71
2021/08/17 04:13:27;;;;;;;11.75;5.10;;;13.40;97.50;;;;;;2088475;28;20037;-72
2021/08/17 04:14:27;;;;;;;8.98;4.82;;;13.40;97.20;;;;;;2088466;28;20480;-73
2021/08/17 04:15:28;;;;;;;10.07;4.68;;;13.40;97.20;;;;;;2088581;28;20391;-72
2021/08/17 04:16:28;;;;;;;10.25;4.95;;;13.40;97.00;;;;;;2079748;28;20212;-72
2021/08/17 04:17:29;;;;;;;11.07;4.90;;;13.50;97.10;;;;;;2079812;28;20033;-71
2021/08/17 04:18:30;;;;;;;8.77;4.72;;;13.50;97.60;;;;;;2079487;28;20054;-71
2021/08/17 04:19:31;;;;;;;10.48;4.90;;;13.50;97.50;;;;;;2078746;28;20109;-71
2021/08/17 04:20:32;;;;;;;10.98;4.88;;;13.50;97.50;;;;;;2079717;28;20040;-72
2021/08/17 04:21:33;;;;;;;13.25;5.00;;;13.60;97.70;;;;;;2079825;28;20473;-71
2021/08/17 04:22:34;;;;;;;10.48;4.85;;;13.60;97.20;;;;;;2088508;28;20055;-71
2021/08/17 04:23:34;;;;;;;12.35;4.88;;;13.60;97.20;;;;;;2079691;28;20025;-72
2021/08/17 04:24:35;;;;;;;10.13;5.07;;;13.60;96.80;;;;;;2079732;28;20054;-71
2021/08/17 04:25:36;;;;;;;9.10;4.68;;;13.70;96.90;;;;;;2088570;28;20057;-71
2021/08/17 04:26:36;;;;;;;9.45;4.55;;;13.70;96.80;;;;;;2079638;28;20042;-73
2021/08/17 04:27:37;;;;;;;11.55;4.88;;;13.70;96.60;;;;;;2079469;28;20053;-73
2021/08/17 04:28:37;;;;;;;10.88;4.78;;;13.70;96.60;;;;;;2079183;28;20157;-72
2021/08/17 04:29:38;;;;;;;11.65;5.00;;;13.70;96.40;;;;;;2078704;28;20026;-71
2021/08/17 04:30:39;;;;;;;7.85;4.72;;;13.70;96.30;;;;;;2088412;28;20050;-74
2021/08/17 04:31:39;;;;;;;9.23;4.57;;;13.70;96.80;;;;;;2088469;28;20041;-72
2021/08/17 04:32:40;;;;;;;9.00;4.57;;;13.70;96.50;;;;;;2088313;28;20021;-72
2021/08/17 04:33:41;;;;;;;9.25;4.30;;;13.70;96.60;;;;;;2079450;28;20069;-72
2021/08/17 04:34:41;;;;;;;6.93;4.18;;;13.80;96.70;;;;;;2079663;28;20034;-73
2021/08/17 04:35:42;;;;;;;11.23;4.93;;;13.80;96.90;;;;;;2088456;28;20484;-73
2021/08/17 04:36:43;;;;;;;9.95;4.80;;;13.80;96.00;;;;;;2079495;28;20060;-71
2021/08/17 04:37:43;;;;;;;8.63;4.60;;;13.90;95.90;;;;;;2079533;28;20029;-72
2021/08/17 04:38:44;;;;;;;8.75;4.50;;;13.90;96.10;;;;;;2088032;28;20554;-72
2021/08/17 04:39:44;;;;;;;12.32;4.57;;;13.90;96.50;;;;;;2087643;28;20469;-72
2021/08/17 04:40:45;;;;;;;8.48;4.68;;;13.90;96.10;;;;;;2088376;28;20029;-72
2021/08/17 04:41:45;;;;;;;10.93;4.70;;;13.90;96.20;;;;;;2088329;28;20041;-73
2021/08/17 04:42:46;;;;;;;9.35;4.57;;;13.90;96.10;;;;;;2088461;28;20699;-72
2021/08/17 04:43:46;;;;;;;9.85;4.60;;;13.90;95.80;;;;;;2088316;28;20047;-72
2021/08/17 04:44:47;;;;;;;9.25;4.65;;;13.90;96.00;;;;;;2088385;28;20021;-72
2021/08/17 04:45:49;;;;;;;12.50;4.80;;;13.90;96.70;;;;;;2096022;28;20490;-71
2021/08/17 04:46:50;;;;;;;7.78;4.32;;;13.90;96.60;;;;;;2095906;28;20511;-71
2021/08/17 04:47:51;;;;;;;7.60;4.40;;;13.90;96.30;;;;;;2080729;28;20028;-72
2021/08/17 04:48:52;;;;;;;10.85;4.78;;;13.90;96.60;;;;;;2080833;28;20505;-71
2021/08/17 04:49:52;;;;;;;10.75;4.80;;;13.90;95.90;;;;;;2080476;28;20030;-72
2021/08/17 04:50:53;;;;;;;10.90;4.47;;;13.80;96.10;;;;;;2080906;28;20037;-73
2021/08/17 04:51:54;;;;;;;10.93;4.50;;;13.90;96.90;;;;;;2080895;28;20053;-73
2021/08/17 04:52:54;;;;;;;10.18;4.72;;;13.90;96.70;;;;;;2089771;28;20021;-72
2021/08/17 04:53:55;;;;;;;11.13;4.70;;;13.90;96.20;;;;;;2089918;28;20138;-72
2021/08/17 04:54:55;;;;;;;10.95;4.97;;;13.90;96.50;;;;;;2089724;28;20082;-73
2021/08/17 04:55:56;;;;;;;7.82;4.50;;;13.90;96.40;;;;;;2089790;28;20419;-72
2021/08/17 04:56:57;;;;;;;10.23;4.70;;;13.90;96.30;;;;;;2080776;28;20034;-73
2021/08/17 04:57:59;;;;;;;9.43;4.70;;;13.90;97.20;;;;;;2081016;28;20025;-72
2021/08/17 04:58:59;;;;;;;10.63;4.90;;;13.90;97.20;;;;;;2089080;28;20349;-71
2021/08/17 05:00:00;;;;;;;10.38;4.53;;;13.90;96.50;;;;;;2089590;28;20119;-72
2021/08/17 05:01:01;;;;;;;9.43;4.65;;;13.90;97.20;;;;;;2089871;28;20032;-71
2021/08/17 05:02:01;;;;;;;7.63;4.50;;;14.00;96.90;;;;;;2089758;28;20025;-72
2021/08/17 05:03:02;;;;;;;12.32;4.57;;;14.00;97.80;;;;;;2081044;28;20065;-73
2021/08/17 05:04:04;;;;;;;8.95;4.47;;;14.10;97.10;;;;;;2081129;28;20034;-72
2021/08/17 05:05:05;;;;;;;8.60;4.72;;;14.10;96.50;;;;;;2080981;28;20037;-70
2021/08/17 05:06:05;;;;;;;9.63;4.82;;;14.10;96.90;;;;;;2081859;28;20030;-71
2021/08/17 05:07:07;;;;;;;12.15;4.72;;;14.10;97.10;;;;;;2081208;28;20079;-72
2021/08/17 05:08:10;;;;;;;12.00;4.63;;;14.10;96.40;;;;;;2089852;28;20029;-72
2021/08/17 05:09:11;;;;;;;8.00;4.20;;;14.10;96.40;;;;;;2088928;28;20082;-72
2021/08/17 05:10:16;;;;;;;10.30;4.30;;;14.20;96.40;;;;;;2097258;28;20025;-72
2021/08/17 05:11:17;;;;;;;7.05;4.35;;;14.20;95.70;;;;;;2096793;28;20037;-71
2021/08/17 05:12:17;;;;;;;7.28;4.03;;;14.30;96.10;;;;;;2089704;28;20103;-71
2021/08/17 05:13:18;;;;;;;9.43;4.40;;;14.40;95.90;;;;;;2080734;28;20080;-71
2021/08/17 05:14:18;;;;;;;8.10;4.22;;;14.40;95.50;;;;;;2080905;28;20029;-72
2021/08/17 05:15:19;;;;;;;9.68;4.60;;;14.50;95.60;;;;;;2081008;28;20126;-71
2021/08/17 05:16:20;;;;;;;10.30;4.40;;;14.50;96.20;;;;;;2080820;28;20112;-73